Time;durP1;ratioP1;P1;durP2;ratioP2;P2;SDS_P1;SDS_P2;PMS_P1;PMS_P2;Temp;Humidity;BMP_temperature;BMP_pressure;BME280_temperature;BME280_humidity;BME280_pressure;Samples;Min_cycle;Max_cycle;Signal;HPM_P1;HPM_P2
2023/12/05 00:04:43;;;;;;;2.67;1.80;;;;;;;;;;20948647;28;20209;-68
2023/12/05 00:14:45;;;;;;;2.00;1.77;;;;;;;;;;20965980;28;20193;-68
2023/12/05 00:24:47;;;;;;;1.93;1.70;;;;;;;;;;20965559;28;20243;-68
2023/12/05 00:34:49;;;;;;;1.13;0.80;;;;;;;;;;20981469;28;20274;-69
2023/12/05 00:44:51;;;;;;;1.87;1.30;;;;;;;;;;20933206;28;20217;-68
2023/12/05 00:54:53;;;;;;;2.47;1.77;;;;;;;;;;20926587;28;20699;-70
2023/12/05 01:04:54;;;;;;;2.50;1.93;;;;;;;;;;20947171;28;20278;-70
2023/12/05 01:14:56;;;;;;;3.27;2.23;;;;;;;;;;20989462;28;20209;-70
2023/12/05 01:24:58;;;;;;;1.33;1.10;;;;;;;;;;20938791;28;20212;-69
2023/12/05 01:35:00;;;;;;;1.03;0.73;;;;;;;;;;20946299;28;20263;-69
2023/12/05 01:45:03;;;;;;;1.50;1.10;;;;;;;;;;20968978;28;20225;-70
2023/12/05 01:55:06;;;;;;;2.27;1.77;;;;;;;;;;20993833;28;20216;-69
2023/12/05 02:05:09;;;;;;;3.33;2.10;;;0.40;99.90;;;;;;20943625;28;20294;-69
2023/12/05 02:15:11;;;;;;;2.57;1.83;;;;;;;;;;20944713;28;20225;-70
2023/12/05 02:25:16;;;;;;;2.20;1.60;;;;;;;;;;20958989;28;20217;-70
2023/12/05 02:35:18;;;;;;;2.43;1.70;;;;;;;;;;20954429;28;20747;-70
2023/12/05 02:45:21;;;;;;;2.03;1.00;;;;;;;;;;20989782;22;20266;-71
2023/12/05 02:55:22;;;;;;;2.37;1.00;;;;;;;;;;20936079;28;20614;-70
2023/12/05 03:05:24;;;;;;;2.80;1.17;;;;;;;;;;20917077;28;20224;-71
2023/12/05 03:15:26;;;;;;;1.10;1.00;;;;;;;;;;20900048;28;20213;-71
2023/12/05 03:25:28;;;;;;;0.87;0.77;;;;;;;;;;20901651;28;20217;-70
2023/12/05 03:35:30;;;;;;;1.90;1.50;;;;;;;;;;20919890;28;20225;-70
2023/12/05 03:45:32;;;;;;;2.07;0.93;;;;;;;;;;20900581;28;20225;-70
2023/12/05 03:55:34;;;;;;;1.63;1.50;;;1.20;99.90;;;;;;20905727;28;20214;-70
2023/12/05 04:05:37;;;;;;;1.80;1.30;;;;;;;;;;20929361;28;20212;-69
2023/12/05 04:15:39;;;;;;;1.37;1.10;;;1.60;99.90;;;;;;20911815;28;20209;-70
2023/12/05 04:25:40;;;;;;;1.20;0.90;;;;;;;;;;20919326;28;20229;-70
2023/12/05 04:35:42;;;;;;;0.87;0.77;;;;;;;;;;20938807;28;20221;-70
2023/12/05 04:45:44;;;;;;;1.30;1.03;;;;;;;;;;20933781;28;20217;-70
2023/12/05 04:55:46;;;;;;;2.03;1.17;;;;;;;;;;20923101;28;20217;-69
2023/12/05 05:05:48;;;;;;;1.70;1.30;;;;;;;;;;20925005;28;20275;-70
2023/12/05 05:15:49;;;;;;;0.40;0.40;;;;;;;;;;20946429;28;20218;-70
2023/12/05 05:25:51;;;;;;;0.90;0.80;;;;;;;;;;20930128;28;20672;-70
2023/12/05 05:35:54;;;;;;;1.10;0.80;;;;;;;;;;20960816;28;20228;-70
2023/12/05 05:45:55;;;;;;;1.37;1.07;;;;;;;;;;20932873;28;20286;-70
2023/12/05 05:56:00;;;;;;;2.07;1.60;;;;;;;;;;20916460;28;20275;-70
2023/12/05 06:06:02;;;;;;;1.90;1.03;;;;;;;;;;20961218;28;20221;-70
2023/12/05 06:16:04;;;;;;;0.93;0.57;;;1.90;99.90;;;;;;20943417;28;20225;-70
2023/12/05 06:26:06;;;;;;;1.33;0.77;;;;;;;;;;20938890;28;20234;-69
2023/12/05 06:36:08;;;;;;;1.73;0.93;;;;;;;;;;20945789;28;20217;-69
2023/12/05 06:46:10;;;;;;;0.63;0.60;;;;;;;;;;20956916;28;20233;-68
2023/12/05 06:56:14;;;;;;;0.63;0.50;;;2.50;99.90;;;;;;20943181;28;20414;-69
2023/12/05 07:06:16;;;;;;;1.40;1.10;;;;;;;;;;20964137;28;20221;-69
2023/12/05 07:16:18;;;;;;;0.83;0.50;;;;;;;;;;20910120;28;20221;-69
2023/12/05 07:26:20;;;;;;;0.60;0.40;;;;;;;;;;20924357;28;20260;-69
2023/12/05 07:36:22;;;;;;;0.83;0.73;;;;;;;;;;20940135;28;20225;-69
2023/12/05 07:46:23;;;;;;;0.40;0.30;;;;;;;;;;20922799;28;20302;-69
2023/12/05 07:56:25;;;;;;;2.80;0.47;;;;;;;;;;20913461;28;20267;-69
2023/12/05 08:06:27;;;;;;;0.47;0.40;;;;;;;;;;20909031;28;20813;-69
2023/12/05 08:16:29;;;;;;;0.20;0.20;;;;;;;;;;20956058;28;20221;-69
2023/12/05 08:26:32;;;;;;;0.17;0.17;;;;;;;;;;20923677;28;20299;-69
2023/12/05 08:36:34;;;;;;;0.20;0.20;;;;;;;;;;20952556;28;20650;-69
2023/12/05 08:46:37;;;;;;;1.37;0.90;;;;;;;;;;20968819;22;20236;-77
2023/12/05 08:56:39;;;;;;;0.30;0.30;;;;;;;;;;21025821;28;20262;-77
2023/12/05 09:06:42;;;;;;;0.77;0.40;;;;;;;;;;20977549;28;20225;-77
2023/12/05 09:16:44;;;;;;;0.70;0.50;;;;;;;;;;20937881;28;20221;-77
2023/12/05 09:26:46;;;;;;;0.63;0.47;;;;;;;;;;20941590;28;20220;-76
2023/12/05 09:36:48;;;;;;;1.47;0.40;;;;;;;;;;20948656;28;20272;-76
2023/12/05 09:46:58;;;;;;;0.20;0.20;;;3.60;99.90;;;;;;20936411;28;20232;-77
2023/12/05 09:57:01;;;;;;;0.47;0.33;;;3.70;99.90;;;;;;20962205;28;20205;-76
2023/12/05 10:07:04;;;;;;;0.20;0.20;;;3.30;99.90;;;;;;20961388;28;20205;-79
2023/12/05 10:17:06;;;;;;;0.47;0.30;;;;;;;;;;20954146;28;20213;-78
2023/12/05 10:27:08;;;;;;;0.23;0.20;;;;;;;;;;20943001;28;20209;-79
2023/12/05 10:37:11;;;;;;;0.83;0.67;;;;;;;;;;20952352;28;20234;-78
2023/12/05 10:47:13;;;;;;;0.30;0.30;;;;;;;;;;20968568;28;20290;-79
2023/12/05 10:57:15;;;;;;;0.80;0.70;;;;;;;;;;20941275;28;20217;-77
2023/12/05 11:07:17;;;;;;;0.87;0.40;;;;;;;;;;20951215;28;20711;-77
2023/12/05 11:17:23;;;;;;;0.63;0.30;;;;;;;;;;20969275;28;20209;-80
2023/12/05 11:27:44;;;;;;;0.40;0.40;;;;;;;;;;20970915;28;20274;-80
2023/12/05 11:38:00;;;;;;;0.57;0.40;;;;;;;;;;20976648;28;20220;-77
2023/12/05 11:48:02;;;;;;;0.40;0.30;;;;;;;;;;20983956;28;20276;-77
2023/12/05 11:58:03;;;;;;;0.40;0.40;;;;;;;;;;20964799;28;20272;-77
2023/12/05 12:08:05;;;;;;;0.47;0.40;;;;;;;;;;20945411;28;20268;-77
2023/12/05 12:18:07;;;;;;;0.20;0.20;;;;;;;;;;20978763;28;20440;-78
2023/12/05 12:28:23;;;;;;;1.73;0.40;;;;;;;;;;20975683;28;20265;-78
2023/12/05 12:38:24;;;;;;;0.40;0.30;;;;;;;;;;20974497;28;20266;-77
2023/12/05 12:48:26;;;;;;;0.97;0.60;;;;;;;;;;20953291;28;20295;-76
2023/12/05 12:58:34;;;;;;;0.30;0.20;;;;;;;;;;20959418;28;20260;-76
2023/12/05 13:08:39;;;;;;;0.50;0.30;;;;;;;;;;20962961;28;20217;-79
2023/12/05 13:18:42;;;;;;;0.10;0.10;;;4.40;99.90;;;;;;20930479;28;20631;-79
2023/12/05 13:28:43;;;;;;;0.47;0.20;;;;;;;;;;20963243;28;20552;-77
2023/12/05 13:38:46;;;;;;;0.13;0.13;;;;;;;;;;20996221;28;20506;-78
2023/12/05 13:48:47;;;;;;;0.27;0.27;;;;;;;;;;20927811;28;20229;-77
2023/12/05 13:58:49;;;;;;;0.30;0.20;;;;;;;;;;20942058;28;20639;-80
2023/12/05 14:08:51;;;;;;;0.20;0.20;;;;;;;;;;20974055;28;20217;-77
2023/12/05 14:18:53;;;;;;;0.20;0.20;;;;;;;;;;20948519;28;20230;-78
2023/12/05 14:28:55;;;;;;;0.10;0.10;;;;;;;;;;20950791;28;20210;-76
2023/12/05 14:38:57;;;;;;;0.10;0.10;;;;;;;;;;20971363;28;20669;-77
2023/12/05 14:48:59;;;;;;;0.60;0.30;;;;;;;;;;20948425;28;20230;-76
2023/12/05 14:59:00;;;;;;;0.30;0.20;;;;;;;;;;20962784;28;20205;-77
2023/12/05 15:09:05;;;;;;;0.10;0.10;;;;;;;;;;20945652;28;20243;-78
2023/12/05 15:19:07;;;;;;;0.47;0.30;;;;;;;;;;20948210;28;20209;-77
2023/12/05 15:29:08;;;;;;;0.17;0.10;;;;;;;;;;20944118;28;20311;-77
2023/12/05 15:39:10;;;;;;;0.10;0.10;;;;;;;;;;20953090;28;20619;-76
2023/12/05 15:49:12;;;;;;;3.70;0.50;;;;;;;;;;20929492;28;20224;-78
2023/12/05 15:59:16;;;;;;;0.30;0.30;;;;;;;;;;20993300;22;20488;-87
2023/12/05 16:09:23;;;;;;;0.10;0.10;;;;;;;;;;20896680;28;20250;-88
2023/12/05 16:19:25;;;;;;;0.10;0.10;;;;;;;;;;20924793;28;20222;-89
2023/12/05 16:29:27;;;;;;;0.17;0.10;;;;;;;;;;20936595;28;20263;-88
2023/12/05 16:39:32;;;;;;;0.10;0.10;;;;;;;;;;20930842;28;20213;-88
2023/12/05 16:49:34;;;;;;;0.47;0.30;;;;;;;;;;20920437;28;20213;-87
2023/12/05 16:59:35;;;;;;;0.33;0.10;;;;;;;;;;20912602;28;20291;-88
2023/12/05 17:09:37;;;;;;;0.20;0.20;;;;;;;;;;20931949;28;20259;-87
2023/12/05 17:19:39;;;;;;;0.07;0.07;;;;;;;;;;20904277;28;20568;-85
2023/12/05 17:29:41;;;;;;;0.13;0.13;;;;;;;;;;20962482;28;20232;-85
2023/12/05 17:39:42;;;;;;;0.17;0.17;;;;;;;;;;20938129;28;20214;-86
2023/12/05 17:49:44;;;;;;;0.23;0.10;;;;;;;;;;20926540;28;20568;-86
2023/12/05 17:59:46;;;;;;;0.10;0.10;;;;;;;;;;20953860;28;20246;-86
2023/12/05 18:20:03;;;;;;;0.10;0.10;;;;;;;;;;21302855;27;20577;-68
2023/12/05 18:30:06;;;;;;;0.30;0.20;;;;;;;;;;21247221;27;20207;-68
2023/12/05 18:40:09;;;;;;;0.10;0.10;;;3.90;99.90;;;;;;21199012;27;20579;-69
2023/12/05 18:50:11;;;;;;;0.20;0.20;;;;;;;;;;21228619;27;20199;-68
2023/12/05 19:00:13;;;;;;;0.30;0.30;;;;;;;;;;21236708;27;20553;-69
2023/12/05 19:10:15;;;;;;;0.30;0.30;;;;;;;;;;21264423;27;20243;-68
2023/12/05 19:20:17;;;;;;;0.40;0.27;;;3.70;99.90;;;;;;21229395;27;20207;-67
2023/12/05 19:30:20;;;;;;;0.20;0.20;;;;;;;;;;21244646;27;20242;-68
2023/12/05 19:40:22;;;;;;;0.40;0.20;;;3.80;99.90;;;;;;21198116;27;20208;-68
2023/12/05 19:50:23;;;;;;;0.20;0.20;;;;;;;;;;21193928;27;21048;-68
2023/12/05 20:00:26;;;;;;;0.10;0.10;;;;;;;;;;21224465;27;20227;-70
2023/12/05 20:10:28;;;;;;;0.10;0.10;;;;;;;;;;21205034;27;20242;-68
2023/12/05 20:20:30;;;;;;;0.00;0.00;;;;;;;;;;21226275;27;20211;-68
2023/12/05 20:30:31;;;;;;;0.30;0.20;;;;;;;;;;21237867;27;20270;-70
2023/12/05 20:40:33;;;;;;;0.00;0.00;;;;;;;;;;21210348;27;20211;-67
2023/12/05 20:50:35;;;;;;;0.47;0.27;;;;;;;;;;21198737;27;20215;-68
2023/12/05 21:00:37;;;;;;;0.20;0.20;;;;;;;;;;21170064;27;20267;-68
2023/12/05 21:10:39;;;;;;;0.47;0.30;;;;;;;;;;21181405;27;20222;-68
2023/12/05 21:20:42;;;;;;;0.10;0.10;;;;;;;;;;21197412;27;20281;-68
2023/12/05 21:30:43;;;;;;;0.40;0.23;;;;;;;;;;21179286;27;20667;-67
2023/12/05 21:40:45;;;;;;;0.30;0.30;;;;;;;;;;21159338;27;20903;-67
2023/12/05 21:50:47;;;;;;;0.43;0.30;;;;;;;;;;21182120;27;20211;-68
2023/12/05 22:00:49;;;;;;;0.60;0.40;;;;;;;;;;21167083;27;20222;-67
2023/12/05 22:10:50;;;;;;;0.20;0.20;;;;;;;;;;21156176;27;20223;-67
2023/12/05 22:21:06;;;;;;;0.43;0.33;;;;;;;;;;21196962;28;20774;-67
2023/12/05 22:31:10;;;;;;;0.57;0.40;;;3.60;99.90;;;;;;20982439;28;20255;-71
2023/12/05 22:41:13;;;;;;;0.40;0.37;;;;;;;;;;20962933;28;20225;-71
2023/12/05 22:51:14;;;;;;;0.17;0.17;;;3.80;99.90;;;;;;20915271;28;20217;-71
2023/12/05 23:01:16;;;;;;;0.40;0.40;;;;;;;;;;20956968;28;20605;-71
2023/12/05 23:11:18;;;;;;;0.60;0.53;;;;;;;;;;20954808;28;20275;-71
2023/12/05 23:21:20;;;;;;;0.20;0.20;;;;;;;;;;20978066;28;20267;-71
2023/12/05 23:31:22;;;;;;;0.20;0.20;;;;;;;;;;20948821;28;20278;-71
2023/12/05 23:41:23;;;;;;;0.80;0.43;;;;;;;;;;20977444;28;20772;-71
2023/12/05 23:51:26;;;;;;;0.70;0.40;;;;;;;;;;20976086;28;20619;-71
